sensor_id;sensor_type;location;lat;lon;timestamp;P1;durP1;ratioP1;P2;durP2;ratioP2
66587;SDS011;53446;50.076;8.198;2023-09-08T00:01:57;111.68;;;77.57;;
66587;SDS011;53446;50.076;8.198;2023-09-08T00:03:57;111.37;;;77.43;;
66587;SDS011;53446;50.076;8.198;2023-09-08T00:05:57;111.10;;;76.90;;
66587;SDS011;53446;50.076;8.198;2023-09-08T00:07:58;115.10;;;78.73;;
66587;SDS011;53446;50.076;8.198;2023-09-08T00:09:58;119.43;;;79.80;;
66587;SDS011;53446;50.076;8.198;2023-09-08T00:11:58;116.57;;;78.63;;
66587;SDS011;53446;50.076;8.198;2023-09-08T00:13:59;114.63;;;78.88;;
66587;SDS011;53446;50.076;8.198;2023-09-08T00:15:59;123.40;;;83.80;;
66587;SDS011;53446;50.076;8.198;2023-09-08T00:17:59;121.80;;;81.23;;
66587;SDS011;53446;50.076;8.198;2023-09-08T00:20:00;124.17;;;81.83;;
66587;SDS011;53446;50.076;8.198;2023-09-08T00:22:00;126.77;;;81.83;;
66587;SDS011;53446;50.076;8.198;2023-09-08T00:24:01;127.57;;;83.63;;
66587;SDS011;53446;50.076;8.198;2023-09-08T00:26:01;132.50;;;84.07;;
66587;SDS011;53446;50.076;8.198;2023-09-08T00:28:01;133.50;;;85.50;;
66587;SDS011;53446;50.076;8.198;2023-09-08T00:30:03;133.52;;;85.75;;
66587;SDS011;53446;50.076;8.198;2023-09-08T00:32:04;131.90;;;84.97;;
66587;SDS011;53446;50.076;8.198;2023-09-08T00:34:05;140.43;;;88.30;;
66587;SDS011;53446;50.076;8.198;2023-09-08T00:36:06;137.63;;;86.03;;
66587;SDS011;53446;50.076;8.198;2023-09-08T00:38:06;135.63;;;85.37;;
66587;SDS011;53446;50.076;8.198;2023-09-08T00:40:07;142.23;;;87.57;;
66587;SDS011;53446;50.076;8.198;2023-09-08T00:42:10;138.85;;;87.18;;
66587;SDS011;53446;50.076;8.198;2023-09-08T00:44:11;138.13;;;86.60;;
66587;SDS011;53446;50.076;8.198;2023-09-08T00:46:11;135.20;;;85.50;;
66587;SDS011;53446;50.076;8.198;2023-09-08T00:48:11;136.67;;;86.30;;
66587;SDS011;53446;50.076;8.198;2023-09-08T00:50:13;138.68;;;86.45;;
66587;SDS011;53446;50.076;8.198;2023-09-08T00:52:13;137.40;;;85.73;;
66587;SDS011;53446;50.076;8.198;2023-09-08T00:54:14;138.07;;;86.20;;
66587;SDS011;53446;50.076;8.198;2023-09-08T00:56:14;136.95;;;85.47;;
66587;SDS011;53446;50.076;8.198;2023-09-08T00:58:15;136.80;;;85.47;;
66587;SDS011;53446;50.076;8.198;2023-09-08T01:00:15;137.65;;;85.80;;
66587;SDS011;53446;50.076;8.198;2023-09-08T01:02:15;140.25;;;85.28;;
66587;SDS011;53446;50.076;8.198;2023-09-08T01:04:16;138.00;;;85.20;;
66587;SDS011;53446;50.076;8.198;2023-09-08T01:06:16;136.70;;;86.60;;
66587;SDS011;53446;50.076;8.198;2023-09-08T01:08:17;141.30;;;87.30;;
66587;SDS011;53446;50.076;8.198;2023-09-08T01:10:18;137.63;;;86.70;;
66587;SDS011;53446;50.076;8.198;2023-09-08T01:12:18;140.25;;;87.43;;
66587;SDS011;53446;50.076;8.198;2023-09-08T01:14:19;139.87;;;86.97;;
66587;SDS011;53446;50.076;8.198;2023-09-08T01:16:19;138.77;;;87.47;;
66587;SDS011;53446;50.076;8.198;2023-09-08T01:18:20;144.73;;;88.10;;
66587;SDS011;53446;50.076;8.198;2023-09-08T01:20:27;145.47;;;88.60;;
66587;SDS011;53446;50.076;8.198;2023-09-08T01:24:59;153.13;;;91.07;;
66587;SDS011;53446;50.076;8.198;2023-09-08T01:27:02;149.57;;;90.28;;
66587;SDS011;53446;50.076;8.198;2023-09-08T01:29:03;150.75;;;90.40;;
66587;SDS011;53446;50.076;8.198;2023-09-08T01:31:03;148.00;;;89.03;;
66587;SDS011;53446;50.076;8.198;2023-09-08T01:33:04;149.03;;;88.83;;
66587;SDS011;53446;50.076;8.198;2023-09-08T01:35:04;142.23;;;88.38;;
66587;SDS011;53446;50.076;8.198;2023-09-08T01:37:06;147.87;;;89.93;;
66587;SDS011;53446;50.076;8.198;2023-09-08T01:39:06;146.73;;;88.90;;
66587;SDS011;53446;50.076;8.198;2023-09-08T01:41:07;146.27;;;88.50;;
66587;SDS011;53446;50.076;8.198;2023-09-08T01:43:07;148.47;;;88.70;;
66587;SDS011;53446;50.076;8.198;2023-09-08T01:45:08;149.53;;;89.13;;
66587;SDS011;53446;50.076;8.198;2023-09-08T01:47:08;145.38;;;89.25;;
66587;SDS011;53446;50.076;8.198;2023-09-08T01:49:09;149.20;;;89.77;;
66587;SDS011;53446;50.076;8.198;2023-09-08T01:51:09;150.90;;;90.20;;
66587;SDS011;53446;50.076;8.198;2023-09-08T01:53:09;150.50;;;90.60;;
66587;SDS011;53446;50.076;8.198;2023-09-08T01:55:10;154.38;;;89.50;;
66587;SDS011;53446;50.076;8.198;2023-09-08T01:57:12;156.30;;;92.15;;
66587;SDS011;53446;50.076;8.198;2023-09-08T01:59:12;155.27;;;90.77;;
66587;SDS011;53446;50.076;8.198;2023-09-08T02:01:12;154.10;;;90.60;;
66587;SDS011;53446;50.076;8.198;2023-09-08T02:03:13;156.25;;;91.82;;
66587;SDS011;53446;50.076;8.198;2023-09-08T02:05:13;156.37;;;90.77;;
66587;SDS011;53446;50.076;8.198;2023-09-08T02:07:14;160.27;;;92.43;;
66587;SDS011;53446;50.076;8.198;2023-09-08T02:09:14;156.20;;;91.65;;
66587;SDS011;53446;50.076;8.198;2023-09-08T02:11:14;159.03;;;92.83;;
66587;SDS011;53446;50.076;8.198;2023-09-08T02:13:15;157.40;;;92.53;;
66587;SDS011;53446;50.076;8.198;2023-09-08T02:15:15;161.47;;;93.70;;
66587;SDS011;53446;50.076;8.198;2023-09-08T02:17:17;156.98;;;92.57;;
66587;SDS011;53446;50.076;8.198;2023-09-08T02:19:17;161.00;;;93.40;;
66587;SDS011;53446;50.076;8.198;2023-09-08T02:21:18;167.87;;;94.03;;
66587;SDS011;53446;50.076;8.198;2023-09-08T02:23:18;159.97;;;92.10;;
66587;SDS011;53446;50.076;8.198;2023-09-08T02:25:18;163.77;;;93.97;;
66587;SDS011;53446;50.076;8.198;2023-09-08T02:27:19;164.63;;;92.73;;
66587;SDS011;53446;50.076;8.198;2023-09-08T02:29:19;165.13;;;94.60;;
66587;SDS011;53446;50.076;8.198;2023-09-08T02:31:19;161.93;;;93.30;;
66587;SDS011;53446;50.076;8.198;2023-09-08T02:33:19;163.87;;;93.27;;
66587;SDS011;53446;50.076;8.198;2023-09-08T02:35:21;166.17;;;94.23;;
66587;SDS011;53446;50.076;8.198;2023-09-08T02:37:22;163.20;;;93.55;;
66587;SDS011;53446;50.076;8.198;2023-09-08T02:39:23;162.23;;;93.17;;
66587;SDS011;53446;50.076;8.198;2023-09-08T02:41:23;165.30;;;94.37;;
66587;SDS011;53446;50.076;8.198;2023-09-08T02:43:23;164.67;;;93.77;;
66587;SDS011;53446;50.076;8.198;2023-09-08T02:45:24;168.07;;;93.77;;
66587;SDS011;53446;50.076;8.198;2023-09-08T02:47:24;166.70;;;93.78;;
66587;SDS011;53446;50.076;8.198;2023-09-08T02:49:24;171.52;;;95.95;;
66587;SDS011;53446;50.076;8.198;2023-09-08T02:51:25;170.67;;;95.43;;
66587;SDS011;53446;50.076;8.198;2023-09-08T02:53:25;169.87;;;95.77;;
66587;SDS011;53446;50.076;8.198;2023-09-08T02:55:28;170.50;;;94.28;;
66587;SDS011;53446;50.076;8.198;2023-09-08T02:57:29;167.93;;;94.50;;
66587;SDS011;53446;50.076;8.198;2023-09-08T02:59:29;171.98;;;95.32;;
66587;SDS011;53446;50.076;8.198;2023-09-08T03:01:30;170.23;;;95.18;;
66587;SDS011;53446;50.076;8.198;2023-09-08T03:03:30;171.60;;;94.67;;
66587;SDS011;53446;50.076;8.198;2023-09-08T03:05:31;177.83;;;97.90;;
66587;SDS011;53446;50.076;8.198;2023-09-08T03:07:31;174.45;;;99.07;;
66587;SDS011;53446;50.076;8.198;2023-09-08T03:09:34;172.77;;;95.70;;
66587;SDS011;53446;50.076;8.198;2023-09-08T03:11:34;173.65;;;96.10;;
66587;SDS011;53446;50.076;8.198;2023-09-08T03:13:37;169.00;;;94.90;;
66587;SDS011;53446;50.076;8.198;2023-09-08T03:15:37;170.83;;;95.30;;
66587;SDS011;53446;50.076;8.198;2023-09-08T03:17:37;169.03;;;94.60;;
66587;SDS011;53446;50.076;8.198;2023-09-08T03:19:38;168.83;;;94.97;;
66587;SDS011;53446;50.076;8.198;2023-09-08T03:21:39;170.60;;;94.78;;
66587;SDS011;53446;50.076;8.198;2023-09-08T03:23:40;165.97;;;94.87;;
66587;SDS011;53446;50.076;8.198;2023-09-08T03:25:42;166.20;;;94.25;;
66587;SDS011;53446;50.076;8.198;2023-09-08T03:27:42;168.60;;;94.50;;
66587;SDS011;53446;50.076;8.198;2023-09-08T03:29:42;166.23;;;94.03;;
66587;SDS011;53446;50.076;8.198;2023-09-08T03:31:43;165.30;;;94.13;;
66587;SDS011;53446;50.076;8.198;2023-09-08T03:33:43;164.63;;;94.30;;
66587;SDS011;53446;50.076;8.198;2023-09-08T03:35:43;164.43;;;94.17;;
66587;SDS011;53446;50.076;8.198;2023-09-08T03:37:44;169.48;;;94.78;;
66587;SDS011;53446;50.076;8.198;2023-09-08T03:39:44;169.10;;;95.60;;
66587;SDS011;53446;50.076;8.198;2023-09-08T03:41:45;169.40;;;95.13;;
66587;SDS011;53446;50.076;8.198;2023-09-08T03:43:45;166.63;;;94.73;;
66587;SDS011;53446;50.076;8.198;2023-09-08T03:45:46;169.10;;;95.45;;
66587;SDS011;53446;50.076;8.198;2023-09-08T03:47:47;166.83;;;94.43;;
66587;SDS011;53446;50.076;8.198;2023-09-08T03:49:47;169.07;;;94.55;;
66587;SDS011;53446;50.076;8.198;2023-09-08T03:51:47;169.85;;;95.30;;
66587;SDS011;53446;50.076;8.198;2023-09-08T03:53:48;168.60;;;94.63;;
66587;SDS011;53446;50.076;8.198;2023-09-08T03:55:48;168.23;;;94.57;;
66587;SDS011;53446;50.076;8.198;2023-09-08T03:57:48;168.80;;;94.37;;
66587;SDS011;53446;50.076;8.198;2023-09-08T03:59:48;178.00;;;95.20;;
66587;SDS011;53446;50.076;8.198;2023-09-08T04:01:49;173.67;;;96.17;;
66587;SDS011;53446;50.076;8.198;2023-09-08T04:03:49;166.80;;;94.90;;
66587;SDS011;53446;50.076;8.198;2023-09-08T04:05:49;169.93;;;95.17;;
66587;SDS011;53446;50.076;8.198;2023-09-08T04:07:50;170.83;;;93.23;;
66587;SDS011;53446;50.076;8.198;2023-09-08T04:09:50;168.52;;;93.13;;
66587;SDS011;53446;50.076;8.198;2023-09-08T04:11:50;166.97;;;92.67;;
66587;SDS011;53446;50.076;8.198;2023-09-08T04:13:51;170.77;;;92.70;;
66587;SDS011;53446;50.076;8.198;2023-09-08T04:15:51;174.27;;;94.37;;
66587;SDS011;53446;50.076;8.198;2023-09-08T04:17:51;177.90;;;95.93;;
66587;SDS011;53446;50.076;8.198;2023-09-08T04:19:52;172.87;;;94.10;;
66587;SDS011;53446;50.076;8.198;2023-09-08T04:21:52;169.70;;;93.05;;
66587;SDS011;53446;50.076;8.198;2023-09-08T04:23:52;177.20;;;95.20;;
66587;SDS011;53446;50.076;8.198;2023-09-08T04:25:53;175.63;;;94.90;;
66587;SDS011;53446;50.076;8.198;2023-09-08T04:27:53;173.93;;;94.53;;
66587;SDS011;53446;50.076;8.198;2023-09-08T04:29:53;173.37;;;93.97;;
66587;SDS011;53446;50.076;8.198;2023-09-08T04:31:53;171.37;;;94.30;;
66587;SDS011;53446;50.076;8.198;2023-09-08T04:33:54;168.77;;;93.67;;
66587;SDS011;53446;50.076;8.198;2023-09-08T04:35:54;172.20;;;94.65;;
66587;SDS011;53446;50.076;8.198;2023-09-08T04:37:55;182.43;;;97.85;;
66587;SDS011;53446;50.076;8.198;2023-09-08T04:39:55;185.33;;;97.57;;
66587;SDS011;53446;50.076;8.198;2023-09-08T04:41:55;180.60;;;99.13;;
66587;SDS011;53446;50.076;8.198;2023-09-08T04:43:56;170.73;;;93.73;;
66587;SDS011;53446;50.076;8.198;2023-09-08T04:45:58;170.15;;;93.32;;
66587;SDS011;53446;50.076;8.198;2023-09-08T04:47:58;168.90;;;93.00;;
66587;SDS011;53446;50.076;8.198;2023-09-08T04:49:58;164.53;;;92.00;;
66587;SDS011;53446;50.076;8.198;2023-09-08T04:51:58;169.77;;;93.60;;
66587;SDS011;53446;50.076;8.198;2023-09-08T04:53:59;168.50;;;93.23;;
66587;SDS011;53446;50.076;8.198;2023-09-08T04:55:59;172.80;;;95.00;;
66587;SDS011;53446;50.076;8.198;2023-09-08T04:57:59;174.77;;;95.30;;
66587;SDS011;53446;50.076;8.198;2023-09-08T05:00:00;172.03;;;94.47;;
66587;SDS011;53446;50.076;8.198;2023-09-08T05:02:00;172.40;;;94.80;;
66587;SDS011;53446;50.076;8.198;2023-09-08T05:04:00;174.37;;;99.87;;
66587;SDS011;53446;50.076;8.198;2023-09-08T05:06:01;162.67;;;91.93;;
66587;SDS011;53446;50.076;8.198;2023-09-08T05:08:01;166.17;;;94.70;;
66587;SDS011;53446;50.076;8.198;2023-09-08T05:10:02;167.80;;;95.30;;
66587;SDS011;53446;50.076;8.198;2023-09-08T05:12:02;166.35;;;94.82;;
66587;SDS011;53446;50.076;8.198;2023-09-08T05:14:03;170.17;;;96.53;;
66587;SDS011;53446;50.076;8.198;2023-09-08T05:16:03;171.98;;;96.38;;
66587;SDS011;53446;50.076;8.198;2023-09-08T05:18:11;173.57;;;96.03;;
66587;SDS011;53446;50.076;8.198;2023-09-08T05:20:11;167.10;;;95.28;;
66587;SDS011;53446;50.076;8.198;2023-09-08T05:22:12;170.85;;;96.45;;
66587;SDS011;53446;50.076;8.198;2023-09-08T05:24:12;169.93;;;96.13;;
66587;SDS011;53446;50.076;8.198;2023-09-08T05:26:12;174.27;;;96.63;;
66587;SDS011;53446;50.076;8.198;2023-09-08T05:28:12;170.30;;;95.37;;
66587;SDS011;53446;50.076;8.198;2023-09-08T05:30:13;175.27;;;95.67;;
66587;SDS011;53446;50.076;8.198;2023-09-08T05:32:13;174.03;;;96.40;;
66587;SDS011;53446;50.076;8.198;2023-09-08T05:34:14;171.70;;;96.00;;
66587;SDS011;53446;50.076;8.198;2023-09-08T05:36:14;173.40;;;96.03;;
66587;SDS011;53446;50.076;8.198;2023-09-08T05:38:14;170.23;;;95.07;;
66587;SDS011;53446;50.076;8.198;2023-09-08T05:40:14;166.43;;;94.07;;
66587;SDS011;53446;50.076;8.198;2023-09-08T05:42:15;164.97;;;93.23;;
66587;SDS011;53446;50.076;8.198;2023-09-08T05:44:15;160.67;;;92.93;;
66587;SDS011;53446;50.076;8.198;2023-09-08T05:46:15;163.73;;;92.57;;
66587;SDS011;53446;50.076;8.198;2023-09-08T05:48:17;165.65;;;94.30;;
66587;SDS011;53446;50.076;8.198;2023-09-08T05:50:17;163.03;;;93.40;;
66587;SDS011;53446;50.076;8.198;2023-09-08T05:52:17;163.23;;;93.53;;
66587;SDS011;53446;50.076;8.198;2023-09-08T05:54:18;159.18;;;92.20;;
66587;SDS011;53446;50.076;8.198;2023-09-08T05:56:18;164.00;;;93.30;;
66587;SDS011;53446;50.076;8.198;2023-09-08T05:58:19;155.23;;;91.63;;
66587;SDS011;53446;50.076;8.198;2023-09-08T06:00:20;157.05;;;92.10;;
66587;SDS011;53446;50.076;8.198;2023-09-08T06:02:20;153.10;;;90.87;;
66587;SDS011;53446;50.076;8.198;2023-09-08T06:04:20;152.30;;;90.10;;
66587;SDS011;53446;50.076;8.198;2023-09-08T06:06:21;150.00;;;90.20;;
66587;SDS011;53446;50.076;8.198;2023-09-08T06:08:21;152.93;;;90.93;;
66587;SDS011;53446;50.076;8.198;2023-09-08T06:10:21;155.07;;;91.20;;
66587;SDS011;53446;50.076;8.198;2023-09-08T06:12:22;151.87;;;90.30;;
66587;SDS011;53446;50.076;8.198;2023-09-08T06:14:22;146.88;;;88.75;;
66587;SDS011;53446;50.076;8.198;2023-09-08T06:16:22;150.75;;;89.80;;
66587;SDS011;53446;50.076;8.198;2023-09-08T06:18:22;144.73;;;88.80;;
66587;SDS011;53446;50.076;8.198;2023-09-08T06:20:23;142.00;;;87.67;;
66587;SDS011;53446;50.076;8.198;2023-09-08T06:22:24;138.30;;;85.88;;
66587;SDS011;53446;50.076;8.198;2023-09-08T06:24:25;137.13;;;86.37;;
66587;SDS011;53446;50.076;8.198;2023-09-08T06:26:25;138.80;;;86.90;;
66587;SDS011;53446;50.076;8.198;2023-09-08T06:28:28;140.43;;;86.67;;
66587;SDS011;53446;50.076;8.198;2023-09-08T06:30:29;132.70;;;84.03;;
66587;SDS011;53446;50.076;8.198;2023-09-08T06:32:29;133.57;;;84.77;;
66587;SDS011;53446;50.076;8.198;2023-09-08T06:34:29;128.20;;;83.43;;
66587;SDS011;53446;50.076;8.198;2023-09-08T06:36:29;129.97;;;84.30;;
66587;SDS011;53446;50.076;8.198;2023-09-08T06:38:30;122.43;;;82.23;;
66587;SDS011;53446;50.076;8.198;2023-09-08T06:40:31;119.57;;;80.88;;
66587;SDS011;53446;50.076;8.198;2023-09-08T06:42:31;118.63;;;79.30;;
66587;SDS011;53446;50.076;8.198;2023-09-08T06:44:32;116.40;;;79.73;;
66587;SDS011;53446;50.076;8.198;2023-09-08T06:46:32;110.10;;;77.30;;
66587;SDS011;53446;50.076;8.198;2023-09-08T06:48:32;110.40;;;75.63;;
66587;SDS011;53446;50.076;8.198;2023-09-08T06:50:32;103.47;;;73.23;;
66587;SDS011;53446;50.076;8.198;2023-09-08T06:52:33;103.87;;;72.83;;
66587;SDS011;53446;50.076;8.198;2023-09-08T06:54:33;98.83;;;72.40;;
66587;SDS011;53446;50.076;8.198;2023-09-08T06:56:35;97.80;;;71.40;;
66587;SDS011;53446;50.076;8.198;2023-09-08T06:58:35;91.05;;;69.00;;
66587;SDS011;53446;50.076;8.198;2023-09-08T07:00:36;87.73;;;67.67;;
66587;SDS011;53446;50.076;8.198;2023-09-08T07:02:36;86.77;;;66.07;;
66587;SDS011;53446;50.076;8.198;2023-09-08T07:04:36;83.03;;;65.03;;
66587;SDS011;53446;50.076;8.198;2023-09-08T07:06:37;76.90;;;62.27;;
66587;SDS011;53446;50.076;8.198;2023-09-08T07:08:38;77.63;;;61.00;;
66587;SDS011;53446;50.076;8.198;2023-09-08T07:10:38;74.33;;;60.87;;
66587;SDS011;53446;50.076;8.198;2023-09-08T07:12:39;70.03;;;58.83;;
66587;SDS011;53446;50.076;8.198;2023-09-08T07:14:39;68.95;;;57.47;;
66587;SDS011;53446;50.076;8.198;2023-09-08T07:16:39;69.03;;;56.67;;
66587;SDS011;53446;50.076;8.198;2023-09-08T07:18:39;62.07;;;53.20;;
66587;SDS011;53446;50.076;8.198;2023-09-08T07:20:40;59.93;;;52.03;;
66587;SDS011;53446;50.076;8.198;2023-09-08T07:22:40;61.67;;;52.77;;
66587;SDS011;53446;50.076;8.198;2023-09-08T07:24:41;63.90;;;54.17;;
66587;SDS011;53446;50.076;8.198;2023-09-08T07:26:41;54.85;;;48.78;;
66587;SDS011;53446;50.076;8.198;2023-09-08T07:28:41;49.53;;;43.70;;
66587;SDS011;53446;50.076;8.198;2023-09-08T07:30:42;49.30;;;43.40;;
66587;SDS011;53446;50.076;8.198;2023-09-08T07:32:42;48.50;;;42.23;;
66587;SDS011;53446;50.076;8.198;2023-09-08T07:34:44;43.30;;;38.53;;
66587;SDS011;53446;50.076;8.198;2023-09-08T07:36:44;45.40;;;38.00;;
66587;SDS011;53446;50.076;8.198;2023-09-08T07:38:44;42.43;;;37.17;;
66587;SDS011;53446;50.076;8.198;2023-09-08T07:40:45;45.60;;;37.47;;
66587;SDS011;53446;50.076;8.198;2023-09-08T07:42:45;44.13;;;34.07;;
66587;SDS011;53446;50.076;8.198;2023-09-08T07:44:45;39.73;;;32.37;;
66587;SDS011;53446;50.076;8.198;2023-09-08T07:46:46;48.77;;;37.10;;
66587;SDS011;53446;50.076;8.198;2023-09-08T07:48:49;37.17;;;30.10;;
66587;SDS011;53446;50.076;8.198;2023-09-08T07:50:49;39.47;;;29.97;;
66587;SDS011;53446;50.076;8.198;2023-09-08T07:52:50;35.25;;;28.02;;
66587;SDS011;53446;50.076;8.198;2023-09-08T07:54:51;33.72;;;26.05;;
66587;SDS011;53446;50.076;8.198;2023-09-08T07:56:52;31.93;;;23.63;;
66587;SDS011;53446;50.076;8.198;2023-09-08T07:58:52;32.67;;;23.80;;
66587;SDS011;53446;50.076;8.198;2023-09-08T08:00:52;33.47;;;23.43;;
66587;SDS011;53446;50.076;8.198;2023-09-08T08:02:54;32.47;;;22.73;;
66587;SDS011;53446;50.076;8.198;2023-09-08T08:04:55;32.83;;;21.95;;
66587;SDS011;53446;50.076;8.198;2023-09-08T08:06:55;31.97;;;20.13;;
66587;SDS011;53446;50.076;8.198;2023-09-08T08:08:56;29.33;;;19.20;;
66587;SDS011;53446;50.076;8.198;2023-09-08T08:10:56;32.57;;;19.20;;
66587;SDS011;53446;50.076;8.198;2023-09-08T08:12:57;28.75;;;16.73;;
66587;SDS011;53446;50.076;8.198;2023-09-08T08:14:57;28.93;;;16.93;;
66587;SDS011;53446;50.076;8.198;2023-09-08T08:16:58;28.73;;;16.58;;
66587;SDS011;53446;50.076;8.198;2023-09-08T08:18:59;29.80;;;16.65;;
66587;SDS011;53446;50.076;8.198;2023-09-08T08:20:59;29.10;;;15.40;;
66587;SDS011;53446;50.076;8.198;2023-09-08T08:23:01;30.52;;;15.77;;
66587;SDS011;53446;50.076;8.198;2023-09-08T08:25:02;31.02;;;17.02;;
66587;SDS011;53446;50.076;8.198;2023-09-08T08:27:03;27.58;;;15.93;;
66587;SDS011;53446;50.076;8.198;2023-09-08T08:29:03;29.00;;;16.00;;
66587;SDS011;53446;50.076;8.198;2023-09-08T08:31:04;28.80;;;15.55;;
66587;SDS011;53446;50.076;8.198;2023-09-08T08:33:05;28.47;;;15.60;;
66587;SDS011;53446;50.076;8.198;2023-09-08T08:35:06;25.98;;;14.80;;
66587;SDS011;53446;50.076;8.198;2023-09-08T08:37:07;28.88;;;15.95;;
66587;SDS011;53446;50.076;8.198;2023-09-08T08:39:07;28.77;;;15.03;;
66587;SDS011;53446;50.076;8.198;2023-09-08T08:41:07;27.97;;;15.40;;
66587;SDS011;53446;50.076;8.198;2023-09-08T08:43:08;29.70;;;14.73;;
66587;SDS011;53446;50.076;8.198;2023-09-08T08:45:08;26.93;;;15.10;;
66587;SDS011;53446;50.076;8.198;2023-09-08T08:47:09;27.47;;;15.67;;
66587;SDS011;53446;50.076;8.198;2023-09-08T08:49:10;25.92;;;13.82;;
66587;SDS011;53446;50.076;8.198;2023-09-08T08:51:11;28.13;;;14.57;;
66587;SDS011;53446;50.076;8.198;2023-09-08T08:53:12;27.75;;;14.13;;
66587;SDS011;53446;50.076;8.198;2023-09-08T08:55:13;29.20;;;16.15;;
66587;SDS011;53446;50.076;8.198;2023-09-08T08:57:15;27.85;;;14.90;;
66587;SDS011;53446;50.076;8.198;2023-09-08T08:59:16;27.92;;;15.85;;
66587;SDS011;53446;50.076;8.198;2023-09-08T09:01:16;28.73;;;15.33;;
66587;SDS011;53446;50.076;8.198;2023-09-08T09:03:21;26.50;;;14.35;;
66587;SDS011;53446;50.076;8.198;2023-09-08T09:05:21;30.20;;;15.33;;
66587;SDS011;53446;50.076;8.198;2023-09-08T09:07:22;26.40;;;14.93;;
66587;SDS011;53446;50.076;8.198;2023-09-08T09:09:23;27.10;;;14.60;;
66587;SDS011;53446;50.076;8.198;2023-09-08T09:11:24;27.05;;;14.93;;
66587;SDS011;53446;50.076;8.198;2023-09-08T09:13:25;28.97;;;14.47;;
66587;SDS011;53446;50.076;8.198;2023-09-08T09:15:29;28.90;;;15.25;;
66587;SDS011;53446;50.076;8.198;2023-09-08T09:17:32;27.35;;;15.73;;
66587;SDS011;53446;50.076;8.198;2023-09-08T09:19:32;25.15;;;13.43;;
66587;SDS011;53446;50.076;8.198;2023-09-08T09:21:43;23.33;;;13.13;;
66587;SDS011;53446;50.076;8.198;2023-09-08T09:23:44;24.88;;;13.65;;
66587;SDS011;53446;50.076;8.198;2023-09-08T09:25:44;24.40;;;13.47;;
66587;SDS011;53446;50.076;8.198;2023-09-08T09:27:49;26.90;;;14.20;;
66587;SDS011;53446;50.076;8.198;2023-09-08T09:29:50;27.88;;;14.52;;
66587;SDS011;53446;50.076;8.198;2023-09-08T09:31:57;29.07;;;14.60;;
66587;SDS011;53446;50.076;8.198;2023-09-08T09:34:03;26.23;;;14.07;;
66587;SDS011;53446;50.076;8.198;2023-09-08T09:36:05;25.98;;;13.80;;
66587;SDS011;53446;50.076;8.198;2023-09-08T09:38:05;28.67;;;13.83;;
66587;SDS011;53446;50.076;8.198;2023-09-08T09:40:06;28.13;;;15.93;;
66587;SDS011;53446;50.076;8.198;2023-09-08T09:42:07;23.25;;;12.68;;
66587;SDS011;53446;50.076;8.198;2023-09-08T09:44:07;22.67;;;12.30;;
66587;SDS011;53446;50.076;8.198;2023-09-08T09:46:08;24.52;;;13.05;;
66587;SDS011;53446;50.076;8.198;2023-09-08T09:48:09;28.33;;;12.80;;
66587;SDS011;53446;50.076;8.198;2023-09-08T09:50:10;23.50;;;12.90;;
66587;SDS011;53446;50.076;8.198;2023-09-08T09:52:12;25.05;;;12.88;;
66587;SDS011;53446;50.076;8.198;2023-09-08T09:54:14;22.90;;;12.47;;
66587;SDS011;53446;50.076;8.198;2023-09-08T09:56:15;24.90;;;13.27;;
66587;SDS011;53446;50.076;8.198;2023-09-08T09:58:17;23.33;;;13.57;;
66587;SDS011;53446;50.076;8.198;2023-09-08T10:00:18;25.10;;;13.32;;
66587;SDS011;53446;50.076;8.198;2023-09-08T10:02:19;22.50;;;12.47;;
66587;SDS011;53446;50.076;8.198;2023-09-08T10:04:21;24.58;;;13.23;;
66587;SDS011;53446;50.076;8.198;2023-09-08T10:06:22;25.75;;;13.25;;
66587;SDS011;53446;50.076;8.198;2023-09-08T10:08:22;22.77;;;12.90;;
66587;SDS011;53446;50.076;8.198;2023-09-08T10:10:23;24.60;;;12.63;;
66587;SDS011;53446;50.076;8.198;2023-09-08T10:12:24;25.88;;;13.63;;
66587;SDS011;53446;50.076;8.198;2023-09-08T10:14:25;25.73;;;12.45;;
66587;SDS011;53446;50.076;8.198;2023-09-08T10:16:27;23.30;;;12.87;;
66587;SDS011;53446;50.076;8.198;2023-09-08T10:18:30;24.75;;;13.45;;
66587;SDS011;53446;50.076;8.198;2023-09-08T10:20:32;26.63;;;14.27;;
66587;SDS011;53446;50.076;8.198;2023-09-08T10:22:33;24.33;;;13.85;;
66587;SDS011;53446;50.076;8.198;2023-09-08T10:24:34;25.08;;;13.10;;
66587;SDS011;53446;50.076;8.198;2023-09-08T10:26:35;23.77;;;13.43;;
66587;SDS011;53446;50.076;8.198;2023-09-08T10:28:40;23.95;;;13.18;;
66587;SDS011;53446;50.076;8.198;2023-09-08T10:30:41;26.90;;;14.30;;
66587;SDS011;53446;50.076;8.198;2023-09-08T10:32:41;23.85;;;13.63;;
66587;SDS011;53446;50.076;8.198;2023-09-08T10:34:43;22.27;;;12.88;;
66587;SDS011;53446;50.076;8.198;2023-09-08T10:36:43;26.08;;;13.95;;
66587;SDS011;53446;50.076;8.198;2023-09-08T10:38:43;22.77;;;12.90;;
66587;SDS011;53446;50.076;8.198;2023-09-08T10:40:47;22.58;;;12.80;;
66587;SDS011;53446;50.076;8.198;2023-09-08T10:42:47;25.70;;;13.17;;
66587;SDS011;53446;50.076;8.198;2023-09-08T10:46:51;23.10;;;13.93;;
66587;SDS011;53446;50.076;8.198;2023-09-08T10:48:56;24.30;;;13.60;;
66587;SDS011;53446;50.076;8.198;2023-09-08T10:51:02;21.58;;;12.40;;
66587;SDS011;53446;50.076;8.198;2023-09-08T10:53:06;22.77;;;12.85;;
66587;SDS011;53446;50.076;8.198;2023-09-08T10:55:07;21.40;;;12.20;;
66587;SDS011;53446;50.076;8.198;2023-09-08T10:57:15;27.00;;;13.63;;
66587;SDS011;53446;50.076;8.198;2023-09-08T10:59:16;27.83;;;13.47;;
66587;SDS011;53446;50.076;8.198;2023-09-08T11:01:17;25.27;;;13.70;;
66587;SDS011;53446;50.076;8.198;2023-09-08T11:05:49;24.23;;;13.60;;
66587;SDS011;53446;50.076;8.198;2023-09-08T11:07:50;23.93;;;13.33;;
66587;SDS011;53446;50.076;8.198;2023-09-08T11:09:52;25.20;;;14.02;;
66587;SDS011;53446;50.076;8.198;2023-09-08T11:11:52;24.17;;;13.33;;
66587;SDS011;53446;50.076;8.198;2023-09-08T11:13:53;24.33;;;13.17;;
66587;SDS011;53446;50.076;8.198;2023-09-08T11:15:53;24.40;;;13.20;;
66587;SDS011;53446;50.076;8.198;2023-09-08T11:17:54;23.75;;;13.23;;
66587;SDS011;53446;50.076;8.198;2023-09-08T11:19:54;26.47;;;13.87;;
66587;SDS011;53446;50.076;8.198;2023-09-08T11:21:55;23.95;;;13.50;;
66587;SDS011;53446;50.076;8.198;2023-09-08T11:23:55;30.07;;;13.30;;
66587;SDS011;53446;50.076;8.198;2023-09-08T11:25:56;23.63;;;12.17;;
66587;SDS011;53446;50.076;8.198;2023-09-08T11:27:56;23.37;;;12.13;;
66587;SDS011;53446;50.076;8.198;2023-09-08T11:29:57;21.08;;;12.82;;
66587;SDS011;53446;50.076;8.198;2023-09-08T11:31:57;22.87;;;13.70;;
66587;SDS011;53446;50.076;8.198;2023-09-08T11:33:58;21.35;;;11.63;;
66587;SDS011;53446;50.076;8.198;2023-09-08T11:35:59;19.00;;;11.43;;
66587;SDS011;53446;50.076;8.198;2023-09-08T11:38:00;19.50;;;11.57;;
66587;SDS011;53446;50.076;8.198;2023-09-08T11:40:01;27.23;;;12.30;;
66587;SDS011;53446;50.076;8.198;2023-09-08T11:42:03;19.95;;;11.68;;
66587;SDS011;53446;50.076;8.198;2023-09-08T11:44:03;18.83;;;11.10;;
66587;SDS011;53446;50.076;8.198;2023-09-08T11:46:04;18.92;;;10.80;;
66587;SDS011;53446;50.076;8.198;2023-09-08T11:48:05;19.10;;;11.10;;